Time;durP1;ratioP1;P1;durP2;ratioP2;P2;SDS_P1;SDS_P2;PMS_P1;PMS_P2;Temp;Humidity;BMP_temperature;BMP_pressure;BME280_temperature;BME280_humidity;BME280_pressure;Samples;Min_cycle;Max_cycle;Signal;HPM_P1;HPM_P2
2022/10/30 00:01:53;;;;;;;41.28;38.67;;;;;;;18.61;63.10;101580.72;4974521;28;20506;-73
2022/10/30 00:04:18;;;;;;;39.35;36.63;;;;;;;18.60;63.46;101576.38;4973847;28;20039;-73
2022/10/30 00:06:44;;;;;;;39.90;36.97;;;;;;;18.57;63.16;101577.75;4974166;28;20062;-72
2022/10/30 00:09:10;;;;;;;39.63;37.17;;;;;;;18.56;63.01;101578.81;4973323;28;20035;-75
2022/10/30 00:11:35;;;;;;;37.85;35.30;;;;;;;18.54;62.88;101575.53;4974415;28;20380;-72
2022/10/30 00:14:00;;;;;;;39.13;36.50;;;;;;;18.53;63.23;101579.38;4973786;28;20362;-72
2022/10/30 00:16:26;;;;;;;39.83;36.75;;;;;;;18.53;63.49;101578.56;4975584;28;20118;-72
2022/10/30 00:18:51;;;;;;;38.70;36.03;;;;;;;18.52;63.38;101568.69;4977674;28;20027;-72
2022/10/30 00:21:17;;;;;;;38.17;35.88;;;;;;;18.50;63.08;101574.47;4977365;28;20031;-73
2022/10/30 00:23:47;;;;;;;39.50;36.80;;;;;;;18.49;63.04;101574.72;4977901;28;20031;-73
2022/10/30 00:26:14;;;;;;;38.00;34.90;;;;;;;18.48;63.10;101571.19;4976462;28;20023;-73
2022/10/30 00:28:39;;;;;;;37.67;35.33;;;;;;;18.46;63.16;101567.88;4977609;28;20066;-72
2022/10/30 00:31:05;;;;;;;40.92;37.92;;;;;;;18.45;62.99;101566.25;4977680;28;20039;-72
2022/10/30 00:33:31;;;;;;;39.28;36.35;;;;;;;18.44;63.03;101569.25;4977387;28;20030;-72
2022/10/30 00:35:56;;;;;;;37.38;34.58;;;;;;;18.43;62.98;101567.63;4977375;28;20070;-72
2022/10/30 00:38:22;;;;;;;39.90;36.75;;;;;;;18.41;63.04;101561.63;4977348;28;20045;-72
2022/10/30 00:40:47;;;;;;;38.05;34.78;;;;;;;18.38;63.29;101555.59;4977315;28;20034;-73
2022/10/30 00:43:32;;;;;;;38.60;35.53;;;;;;;18.37;63.43;101561.34;4976160;28;20395;-76
2022/10/30 00:46:05;;;;;;;36.50;34.15;;;;;;;18.35;63.44;101569.00;4977447;28;20051;-73
2022/10/30 00:48:31;;;;;;;39.65;37.05;;;;;;;18.33;63.12;101566.53;4977214;28;20485;-73
2022/10/30 00:50:59;;;;;;;36.88;34.53;;;;;;;18.32;63.01;101561.31;4977242;28;20111;-72
2022/10/30 00:53:26;;;;;;;38.58;35.47;;;;;;;18.31;63.25;101562.44;4977206;28;20058;-72
2022/10/30 00:55:56;;;;;;;36.97;34.42;;;;;;;18.29;63.36;101559.16;4975756;28;20502;-72
2022/10/30 00:58:45;;;;;;;40.63;37.33;;;;;;;18.28;62.94;101569.28;4977106;28;20156;-72
2022/10/30 01:01:18;;;;;;;37.78;35.47;;;;;;;18.26;63.15;101568.72;4977048;28;20109;-73
2022/10/30 01:03:45;;;;;;;36.42;34.33;;;;;;;18.25;63.24;101567.09;4975930;28;20038;-73
2022/10/30 01:06:14;;;;;;;39.28;36.53;;;;;;;18.24;63.28;101570.09;4977376;28;20022;-72
2022/10/30 01:08:40;;;;;;;37.45;34.75;;;;;;;18.23;63.07;101569.28;4976711;28;20034;-72
2022/10/30 01:11:06;;;;;;;37.42;34.97;;;;;;;18.21;63.03;101576.13;4976853;28;20027;-74
2022/10/30 01:13:35;;;;;;;41.47;38.85;;;;;;;18.19;63.50;101570.09;4976679;28;20030;-73
2022/10/30 01:16:27;;;;;;;37.15;34.75;;;;;;;18.19;63.18;101578.28;4976405;28;20399;-71
2022/10/30 01:19:01;;;;;;;38.15;35.63;;;;;;;18.15;63.03;101567.91;4954067;28;20074;-72
2022/10/30 01:21:39;;;;;;;38.33;35.63;;;;;;;18.14;62.97;101566.28;4976574;28;20077;-73
2022/10/30 01:24:16;;;;;;;37.45;35.08;;;;;;;18.12;63.33;101571.19;4976712;28;20042;-73
2022/10/30 01:27:00;;;;;;;37.42;34.95;;;;;;;18.11;63.33;101571.47;4977013;28;20034;-72
2022/10/30 01:29:49;;;;;;;37.90;35.38;;;;;;;18.10;63.21;101565.19;4976576;28;20110;-72
2022/10/30 01:32:36;;;;;;;38.58;35.60;;;;;;;18.08;63.11;101564.63;4976628;28;20026;-71
2022/10/30 01:35:22;;;;;;;36.38;34.28;;;;;;;18.07;63.53;101565.72;4976824;28;20057;-72
2022/10/30 01:38:06;;;;;;;39.10;36.13;;;;;;;18.05;63.15;101573.38;4975984;28;20045;-72
2022/10/30 01:40:32;;;;;;;39.85;37.33;;;;;;;18.04;63.15;101573.63;4976261;28;20031;-72
2022/10/30 01:42:58;;;;;;;37.00;34.58;;;;;;;18.02;63.22;101576.66;4976194;28;20092;-72
2022/10/30 01:45:41;;;;;;;39.35;36.33;;;;;;;18.01;63.13;101572.28;4976099;28;20062;-75
2022/10/30 01:48:39;;;;;;;36.85;34.35;;;;;;;17.99;63.38;101577.19;4976674;28;20165;-73
2022/10/30 01:51:49;;;;;;;36.83;34.42;;;;;;;17.97;63.52;101589.47;4976462;28;20027;-73
2022/10/30 01:54:52;;;;;;;37.85;35.35;;;;;;;17.94;63.60;101585.38;4976262;28;20042;-73
2022/10/30 01:57:36;;;;;;;35.33;33.38;;;;;;;17.91;63.06;101586.75;4976061;28;20050;-72
2022/10/30 02:00:06;;;;;;;37.70;35.28;;;;;;;17.90;63.61;101581.56;4975523;28;20391;-72
2022/10/30 02:02:32;;;;;;;38.75;35.95;;;;;;;17.88;63.58;101575.53;4974728;28;20065;-73
2022/10/30 02:04:58;;;;;;;39.45;36.20;;;;;;;17.88;63.41;101570.09;4976190;28;20063;-73
2022/10/30 02:07:24;;;;;;;38.10;35.80;;;;;;;17.86;63.43;101575.81;4975922;28;20062;-74
2022/10/30 02:09:53;;;;;;;37.00;33.70;;;;;;;17.85;63.60;101585.13;4976160;28;20427;-73
2022/10/30 02:12:21;;;;;;;37.35;35.00;;;;;;;17.84;63.35;101588.09;4975604;28;20483;-72
2022/10/30 02:14:50;;;;;;;36.90;34.47;;;;;;;17.82;63.60;101582.13;4974236;28;20026;-73
2022/10/30 02:17:16;;;;;;;37.00;34.70;;;;;;;17.82;63.62;101595.78;4975608;28;20027;-72
2022/10/30 02:19:42;;;;;;;36.70;34.50;;;;;;;17.81;63.87;101605.03;4975389;28;20034;-73
2022/10/30 02:22:07;;;;;;;34.75;32.58;;;;;;;17.79;63.53;101602.56;4975505;28;20035;-73
2022/10/30 02:24:33;;;;;;;37.30;34.90;;;;;;;17.78;63.32;101595.44;4974162;28;20058;-73
2022/10/30 02:26:59;;;;;;;36.78;34.38;;;;;;;17.77;63.50;101598.47;4975109;28;20372;-73
2022/10/30 02:29:24;;;;;;;36.72;34.38;;;;;;;17.75;63.37;101596.00;4975340;28;20459;-74
2022/10/30 02:31:49;;;;;;;37.83;35.50;;;;;;;17.74;63.41;101588.91;4974685;28;20061;-73
2022/10/30 02:34:15;;;;;;;36.88;34.50;;;;;;;17.72;63.58;101597.34;4975360;28;20126;-74
2022/10/30 02:36:40;;;;;;;36.70;34.60;;;;;;;17.71;63.38;101597.63;4974240;28;20030;-73
2022/10/30 02:39:06;;;;;;;37.38;33.92;;;;;;;17.70;63.19;101595.97;4974689;28;20031;-73
2022/10/30 02:41:32;;;;;;;36.03;33.72;;;;;;;17.69;63.83;101597.09;4975087;28;20081;-74
2022/10/30 02:43:57;;;;;;;36.63;34.05;;;;;;;17.67;63.37;101591.88;4974082;28;20038;-74
2022/10/30 02:46:23;;;;;;;36.40;34.03;;;;;;;17.66;63.68;101592.13;4975142;28;20031;-74
2022/10/30 02:48:49;;;;;;;36.33;33.60;;;;;;;17.64;63.67;101592.44;4975578;28;20117;-75
2022/10/30 02:51:14;;;;;;;36.22;33.70;;;;;;;17.63;63.80;101585.31;4975575;28;20062;-74
2022/10/30 02:53:40;;;;;;;36.60;34.22;;;;;;;17.62;63.40;101585.59;4975429;28;20382;-74
2022/10/30 02:56:07;;;;;;;35.65;33.42;;;;;;;17.60;63.57;101585.03;4975266;28;20118;-74
2022/10/30 02:58:34;;;;;;;37.83;34.97;;;;;;;17.59;63.62;101595.13;4974832;28;20047;-74
2022/10/30 03:01:18;;;;;;;35.20;33.10;;;;;;;17.59;63.21;101599.75;4974847;28;20101;-73
2022/10/30 03:03:45;;;;;;;36.85;34.55;;;;;;;17.57;63.78;101602.78;4974668;28;20514;-73
2022/10/30 03:06:14;;;;;;;37.05;34.75;;;;;;;17.55;63.57;101606.88;4975047;28;20031;-72
2022/10/30 03:08:40;;;;;;;37.38;34.75;;;;;;;17.54;63.64;101589.66;4974626;28;20105;-72
2022/10/30 03:11:11;;;;;;;37.00;34.40;;;;;;;17.51;63.29;101591.03;4974710;28;20490;-72
2022/10/30 03:13:39;;;;;;;35.65;33.30;;;;;;;17.51;63.16;101587.44;4974878;28;20043;-73
2022/10/30 03:16:12;;;;;;;37.80;35.25;;;;;;;17.49;63.64;101587.72;4974672;28;20394;-73
2022/10/30 03:18:39;;;;;;;36.50;34.00;;;;;;;17.49;63.32;101592.38;4973575;28;20104;-73
2022/10/30 03:21:06;;;;;;;35.70;33.30;;;;;;;17.46;63.78;101593.75;4974618;28;20042;-72
2022/10/30 03:23:32;;;;;;;35.78;33.45;;;;;;;17.46;63.25;101595.63;4974669;28;20030;-72
2022/10/30 03:25:58;;;;;;;33.65;31.08;;;;;;;17.45;63.63;101599.47;4974581;28;20050;-72
2022/10/30 03:28:26;;;;;;;35.78;33.42;;;;;;;17.44;63.40;101598.66;4974346;28;20042;-73
2022/10/30 03:30:57;;;;;;;34.25;32.05;;;;;;;17.42;63.62;101597.28;4974450;28;20102;-72
2022/10/30 03:33:23;;;;;;;34.55;32.08;;;;;;;17.40;63.27;101600.25;4974743;28;20039;-73
2022/10/30 03:35:48;;;;;;;38.50;35.70;;;;;;;17.39;63.75;101597.81;4974684;28;20039;-73
2022/10/30 03:38:14;;;;;;;35.22;33.03;;;;;;;17.38;63.62;101605.16;4973660;28;20027;-73
2022/10/30 03:40:40;;;;;;;36.10;33.70;;;;;;;17.37;63.66;101598.06;4974586;28;20170;-75
2022/10/30 03:43:05;;;;;;;35.55;33.33;;;;;;;17.36;63.46;101598.31;4973082;28;20062;-73
2022/10/30 03:45:32;;;;;;;36.42;34.13;;;;;;;17.35;63.33;101615.81;4974629;28;20117;-73
2022/10/30 03:48:02;;;;;;;35.75;33.30;;;;;;;17.34;63.44;101619.59;4974338;28;20077;-73
2022/10/30 03:50:27;;;;;;;35.35;33.03;;;;;;;17.32;63.73;101613.63;4975332;28;20038;-72
2022/10/30 03:52:57;;;;;;;35.05;32.67;;;;;;;17.31;63.54;101620.97;4976777;28;20452;-72
2022/10/30 03:55:23;;;;;;;34.42;32.30;;;;;;;17.29;63.62;101615.78;4978092;28;20041;-74
2022/10/30 03:57:49;;;;;;;36.03;33.63;;;;;;;17.27;63.47;101617.97;4978071;28;20538;-73
2022/10/30 04:00:14;;;;;;;34.92;32.70;;;;;;;17.26;63.80;101608.13;4978101;28;20063;-73
2022/10/30 04:02:50;;;;;;;36.67;33.75;;;;;;;17.25;63.13;101611.13;4978070;28;20034;-75
2022/10/30 04:05:18;;;;;;;34.40;32.42;;;;;;;17.24;63.56;101612.22;4976698;28;20034;-73
2022/10/30 04:07:44;;;;;;;33.80;31.55;;;;;;;17.22;63.55;101608.94;4976602;28;20034;-75
2022/10/30 04:10:10;;;;;;;36.05;33.28;;;;;;;17.21;63.64;101607.28;4978428;28;20111;-73
2022/10/30 04:12:36;;;;;;;34.72;32.60;;;;;;;17.19;63.37;101602.09;4977947;28;20031;-74
2022/10/30 04:15:02;;;;;;;34.25;32.15;;;;;;;17.19;63.32;101584.91;4977899;28;20442;-73
2022/10/30 04:17:28;;;;;;;36.95;34.70;;;;;;;17.17;63.33;101574.22;4977946;28;20467;-74
2022/10/30 04:19:53;;;;;;;35.88;33.38;;;;;;;17.16;63.36;101577.22;4977751;28;20098;-72
2022/10/30 04:22:18;;;;;;;32.72;30.88;;;;;;;17.15;63.30;101589.22;4978249;28;20452;-73
2022/10/30 04:24:44;;;;;;;35.17;32.88;;;;;;;17.14;63.52;101587.59;4976517;28;20066;-77
2022/10/30 04:27:12;;;;;;;33.20;31.00;;;;;;;17.13;63.40;101575.03;4977669;28;20035;-72
2022/10/30 04:29:37;;;;;;;32.90;30.67;;;;;;;17.11;63.52;101571.72;4977679;28;20031;-73
2022/10/30 04:32:03;;;;;;;34.88;32.33;;;;;;;17.09;63.50;101581.03;4977380;28;20027;-73
2022/10/30 04:34:28;;;;;;;34.78;32.67;;;;;;;17.08;63.51;101589.47;4977470;28;20086;-73
2022/10/30 04:36:54;;;;;;;35.92;33.65;;;;;;;17.06;63.70;101581.56;4976067;28;20034;-73
2022/10/30 04:39:20;;;;;;;33.85;31.65;;;;;;;17.06;63.29;101569.81;4977219;28;20035;-73
2022/10/30 04:41:45;;;;;;;34.35;32.20;;;;;;;17.05;63.75;101576.34;4977313;28;20034;-76
2022/10/30 04:44:10;;;;;;;33.58;31.55;;;;;;;17.03;63.33;101573.91;4977244;28;20041;-73
2022/10/30 04:46:36;;;;;;;33.53;31.58;;;;;;;17.02;63.87;101579.63;4977526;28;20387;-73
2022/10/30 04:49:01;;;;;;;34.22;32.20;;;;;;;17.01;63.94;101577.97;4976026;28;20073;-73
2022/10/30 04:51:26;;;;;;;34.58;31.58;;;;;;;17.00;63.74;101585.34;4977464;28;20451;-73
2022/10/30 04:53:53;;;;;;;34.50;32.15;;;;;;;16.99;63.92;101585.63;4977371;28;20133;-73
2022/10/30 04:56:18;;;;;;;33.33;31.13;;;;;;;16.98;63.46;101583.97;4977116;28;20067;-74
2022/10/30 04:58:44;;;;;;;34.67;32.20;;;;;;;16.97;63.30;101595.97;4975943;28;20038;-73
2022/10/30 05:01:09;;;;;;;34.40;32.00;;;;;;;16.95;63.90;101589.94;4976485;28;20109;-74
2022/10/30 05:03:34;;;;;;;34.55;31.88;;;;;;;16.94;63.54;101597.31;4976959;28;20038;-74
2022/10/30 05:06:15;;;;;;;35.83;33.35;;;;;;;16.94;63.75;101607.44;4976932;28;20030;-73
2022/10/30 05:08:40;;;;;;;34.58;32.05;;;;;;;16.91;63.52;101595.13;4977152;28;20026;-73
2022/10/30 05:11:06;;;;;;;34.97;32.95;;;;;;;16.89;63.23;101599.22;4977077;28;20037;-73
2022/10/30 05:13:31;;;;;;;32.38;30.23;;;;;;;16.89;63.62;101594.56;4976759;28;20106;-73
2022/10/30 05:15:56;;;;;;;34.95;32.60;;;;;;;16.88;63.64;101598.38;4959771;28;20039;-73
2022/10/30 05:18:22;;;;;;;33.50;31.42;;;;;;;16.86;63.74;101593.19;4976798;28;20386;-73
2022/10/30 05:20:47;;;;;;;33.83;31.48;;;;;;;16.85;63.62;101590.72;4975941;28;20066;-74
2022/10/30 05:23:12;;;;;;;33.55;31.40;;;;;;;16.84;63.95;101586.34;4976811;28;20027;-73
2022/10/30 05:25:38;;;;;;;33.15;31.15;;;;;;;16.83;63.86;101585.53;4976577;28;20074;-73
2022/10/30 05:28:05;;;;;;;33.72;31.75;;;;;;;16.82;63.64;101580.34;4976449;28;20077;-73
2022/10/30 05:30:33;;;;;;;33.33;31.15;;;;;;;16.81;63.80;101589.63;4975171;28;20506;-74
2022/10/30 05:33:03;;;;;;;34.53;32.35;;;;;;;16.80;63.51;101579.78;4976348;28;20038;-74
2022/10/30 05:35:31;;;;;;;33.22;31.23;;;;;;;16.79;63.39;101580.88;4976353;28;20117;-74
2022/10/30 05:37:57;;;;;;;32.47;30.58;;;;;;;16.77;63.41;101583.00;4975746;28;20049;-74
2022/10/30 05:40:22;;;;;;;33.90;31.52;;;;;;;16.76;63.36;101582.19;4975024;28;20027;-74
2022/10/30 05:42:48;;;;;;;32.78;30.73;;;;;;;16.74;63.77;101583.53;4976515;28;20105;-72
2022/10/30 05:45:14;;;;;;;34.60;32.00;;;;;;;16.73;63.39;101584.59;4976091;28;20450;-74
2022/10/30 05:47:39;;;;;;;33.90;31.38;;;;;;;16.71;63.60;101587.59;4975907;28;20039;-73
2022/10/30 05:50:05;;;;;;;34.05;32.00;;;;;;;16.71;63.67;101586.78;4975595;28;20046;-75
2022/10/30 05:52:31;;;;;;;33.95;31.63;;;;;;;16.69;63.76;101578.88;4974525;28;20142;-73
2022/10/30 05:54:56;;;;;;;35.08;32.88;;;;;;;16.68;63.79;101577.19;4975771;28;20111;-76
2022/10/30 05:57:21;;;;;;;33.72;31.40;;;;;;;16.67;63.56;101570.13;4974978;28;20411;-74
2022/10/30 05:59:47;;;;;;;34.13;31.83;;;;;;;16.65;63.69;101566.81;4974614;28;20058;-74
2022/10/30 06:02:13;;;;;;;34.90;32.40;;;;;;;16.65;63.49;101569.56;4975791;28;20070;-73
2022/10/30 06:04:38;;;;;;;34.25;32.08;;;;;;;16.63;63.61;101568.97;4975805;28;20475;-73
2022/10/30 06:07:03;;;;;;;35.33;32.83;;;;;;;16.62;63.52;101567.34;4958672;28;20038;-73
2022/10/30 06:09:29;;;;;;;32.40;30.20;;;;;;;16.61;63.45;101580.19;4975770;28;20034;-74
2022/10/30 06:11:54;;;;;;;34.65;32.63;;;;;;;16.60;63.68;101580.44;4974533;28;20115;-74
2022/10/30 06:14:20;;;;;;;33.03;30.92;;;;;;;16.58;63.65;101571.69;4974822;28;20089;-74
2022/10/30 06:16:45;;;;;;;31.83;29.83;;;;;;;16.57;63.57;101570.88;4975328;28;20039;-74
2022/10/30 06:19:11;;;;;;;33.78;31.38;;;;;;;16.55;63.41;101570.31;4975268;28;20063;-72
2022/10/30 06:21:36;;;;;;;33.53;31.15;;;;;;;16.55;63.41;101575.75;4975593;28;20023;-73
2022/10/30 06:24:01;;;;;;;34.13;31.98;;;;;;;16.54;63.77;101581.50;4975404;28;20463;-74
2022/10/30 06:26:27;;;;;;;33.38;31.10;;;;;;;16.52;63.64;101578.19;4974589;28;20062;-74
2022/10/30 06:28:52;;;;;;;32.90;30.80;;;;;;;16.51;63.56;101577.38;4975440;28;20031;-73
2022/10/30 06:31:17;;;;;;;33.45;31.45;;;;;;;16.50;63.91;101583.09;4975784;28;20356;-73
2022/10/30 06:33:43;;;;;;;34.65;31.98;;;;;;;16.49;63.45;101573.28;4975285;28;20062;-73
2022/10/30 06:36:08;;;;;;;36.00;33.38;;;;;;;16.48;63.50;101566.16;4958033;28;20042;-73
2022/10/30 06:38:33;;;;;;;33.75;31.70;;;;;;;16.46;63.52;101565.63;4975247;28;20062;-73
2022/10/30 06:40:59;;;;;;;32.70;30.67;;;;;;;16.45;63.53;101564.78;4975212;28;20034;-73
2022/10/30 06:43:24;;;;;;;33.85;31.40;;;;;;;16.43;63.61;101562.34;4975281;28;20034;-73
2022/10/30 06:45:50;;;;;;;32.35;30.40;;;;;;;16.42;63.85;101563.41;4975047;28;20035;-73
2022/10/30 06:48:17;;;;;;;34.00;31.40;;;;;;;16.41;63.67;101561.75;4973517;28;20468;-73
2022/10/30 06:50:43;;;;;;;33.33;31.33;;;;;;;16.40;63.50;101562.88;4957996;28;20094;-72
2022/10/30 06:53:08;;;;;;;33.80;31.58;;;;;;;16.38;63.84;101559.56;4974969;28;20097;-72
2022/10/30 06:55:33;;;;;;;33.78;30.95;;;;;;;16.38;63.80;101562.28;4974925;28;20077;-72
2022/10/30 06:57:59;;;;;;;33.20;30.90;;;;;;;16.37;63.40;101560.63;4957711;28;20441;-73
2022/10/30 07:00:24;;;;;;;31.42;29.33;;;;;;;16.37;63.83;101566.09;4974996;28;20482;-75
2022/10/30 07:03:00;;;;;;;34.00;31.83;;;;;;;16.35;63.31;101568.25;4973715;28;20511;-73
2022/10/30 07:05:26;;;;;;;35.33;32.72;;;;;;;16.34;63.62;101572.06;4974954;28;20454;-73
2022/10/30 07:07:51;;;;;;;33.05;30.48;;;;;;;16.31;63.66;101567.16;4974855;28;20042;-73
2022/10/30 07:10:16;;;;;;;33.45;30.98;;;;;;;16.32;63.80;101584.31;4974829;28;20113;-73
2022/10/30 07:12:42;;;;;;;34.25;31.95;;;;;;;16.30;63.83;101573.66;4974783;28;20035;-73
2022/10/30 07:15:07;;;;;;;32.83;30.52;;;;;;;16.29;63.38;101563.03;4974669;28;20042;-76
2022/10/30 07:17:33;;;;;;;31.88;29.95;;;;;;;16.30;63.46;101570.13;4974716;28;20474;-73
2022/10/30 07:19:58;;;;;;;31.63;29.67;;;;;;;16.27;63.28;101565.19;4975170;28;20035;-72
2022/10/30 07:22:23;;;;;;;32.85;30.52;;;;;;;16.27;63.70;101566.00;4974915;28;20037;-72
2022/10/30 07:24:49;;;;;;;32.60;30.30;;;;;;;16.26;63.76;101566.28;4974212;28;20082;-76
2022/10/30 07:27:14;;;;;;;33.50;31.20;;;;;;;16.24;63.67;101561.09;4973338;28;20062;-73
2022/10/30 07:29:39;;;;;;;32.25;29.95;;;;;;;16.23;63.74;101556.72;4974344;28;20575;-73
2022/10/30 07:32:05;;;;;;;33.47;31.02;;;;;;;16.21;63.58;101553.44;4973797;28;20463;-73
2022/10/30 07:34:30;;;;;;;33.65;31.52;;;;;;;16.21;63.45;101556.97;4974176;28;20114;-74
2022/10/30 07:36:56;;;;;;;34.90;32.42;;;;;;;16.20;63.79;101568.13;4972902;28;20526;-72
2022/10/30 07:39:21;;;;;;;34.58;32.22;;;;;;;16.19;63.75;101570.03;4974954;28;20035;-74
2022/10/30 07:41:50;;;;;;;33.55;31.42;;;;;;;16.19;63.48;101577.41;4957243;28;20459;-74
2022/10/30 07:44:15;;;;;;;32.75;30.30;;;;;;;16.17;63.52;101576.84;4974142;28;20092;-73
2022/10/30 07:46:41;;;;;;;32.40;30.38;;;;;;;16.17;63.59;101576.84;4974495;28;20463;-73
2022/10/30 07:49:06;;;;;;;33.30;31.10;;;;;;;16.16;63.35;101576.00;4974352;28;20031;-73
2022/10/30 07:51:31;;;;;;;33.78;31.45;;;;;;;16.16;63.68;101569.75;4973464;28;20063;-73
2022/10/30 07:53:57;;;;;;;34.13;31.20;;;;;;;16.15;63.79;101568.09;4974335;28;20498;-72
2022/10/30 07:56:22;;;;;;;33.45;31.00;;;;;;;16.14;63.90;101563.72;4974268;28;20484;-73
2022/10/30 07:58:48;;;;;;;33.70;31.23;;;;;;;16.14;63.59;101561.81;4974733;28;20066;-73
2022/10/30 08:01:13;;;;;;;35.00;32.22;;;;;;;16.14;63.67;101550.09;4973544;28;20125;-76
2022/10/30 08:03:38;;;;;;;34.22;31.67;;;;;;;16.11;63.57;101551.44;4974752;28;20050;-73
2022/10/30 08:06:04;;;;;;;35.22;32.78;;;;;;;16.11;63.94;101562.34;4974294;28;20063;-73
2022/10/30 08:08:29;;;;;;;33.83;30.75;;;;;;;16.11;64.04;101567.81;4973156;28;20043;-74
2022/10/30 08:10:55;;;;;;;33.95;31.33;;;;;;;16.12;64.06;101576.78;4973184;28;20042;-74
2022/10/30 08:13:20;;;;;;;34.28;31.85;;;;;;;16.10;63.85;101576.22;4974414;28;20041;-73
2022/10/30 08:15:45;;;;;;;33.90;31.38;;;;;;;16.09;63.91;101575.41;4974192;28;20368;-73
2022/10/30 08:18:11;;;;;;;32.88;30.75;;;;;;;16.10;63.92;101579.78;4974178;28;20038;-73
2022/10/30 08:20:36;;;;;;;32.58;30.42;;;;;;;16.09;63.91;101577.31;4974138;28;20427;-73
2022/10/30 08:23:02;;;;;;;33.95;31.38;;;;;;;16.08;64.21;101568.31;4972481;28;20454;-72
2022/10/30 08:25:29;;;;;;;34.20;31.92;;;;;;;16.08;64.23;101578.41;4972830;28;20043;-74
2022/10/30 08:28:03;;;;;;;32.85;30.55;;;;;;;16.08;64.27;101572.97;4973846;28;20046;-73
2022/10/30 08:30:33;;;;;;;37.05;33.90;;;;;;;16.07;64.31;101583.00;4973715;28;20110;-72
2022/10/30 08:33:00;;;;;;;35.50;32.25;;;;;;;16.06;64.29;101588.75;4974059;28;20105;-72
2022/10/30 08:35:26;;;;;;;32.70;30.70;;;;;;;16.06;64.13;101586.84;4973752;28;20468;-73
2022/10/30 08:37:56;;;;;;;31.10;29.25;;;;;;;16.07;64.08;101587.66;4976100;28;20042;-73
2022/10/30 08:40:22;;;;;;;34.50;31.80;;;;;;;16.05;63.98;101581.63;4977435;28;20078;-72
2022/10/30 08:42:51;;;;;;;35.53;32.88;;;;;;;16.05;64.25;101579.75;4977954;28;20031;-72
2022/10/30 08:45:17;;;;;;;39.35;33.13;;;;;;;16.06;64.32;101580.56;4977425;28;20039;-75
2022/10/30 08:47:42;;;;;;;33.53;31.10;;;;;;;16.05;64.68;101574.31;4976392;28;20037;-72
2022/10/30 08:50:08;;;;;;;36.30;32.88;;;;;;;16.06;64.96;101569.66;4977587;28;20034;-73
2022/10/30 08:52:33;;;;;;;34.88;32.30;;;;;;;16.06;64.68;101566.94;4976979;28;20134;-72
2022/10/30 08:54:59;;;;;;;35.40;32.35;;;;;;;16.05;65.13;101568.84;4977116;28;20538;-72
2022/10/30 08:57:25;;;;;;;33.47;31.13;;;;;;;16.06;65.06;101564.22;4960216;28;20066;-72
2022/10/30 08:59:50;;;;;;;36.92;33.30;;;;;;;16.05;64.90;101557.94;4975844;28;20494;-73
2022/10/30 09:02:15;;;;;;;36.13;32.83;;;;;;;16.05;65.48;101557.94;4975856;28;20118;-74
2022/10/30 09:04:41;;;;;;;35.58;32.10;;;;;;;16.05;65.75;101555.22;4976970;28;20405;-72
2022/10/30 09:07:06;;;;;;;36.40;33.25;;;;;;;16.05;65.57;101555.22;4975621;28;20034;-76
2022/10/30 09:09:31;;;;;;;39.47;35.92;;;;;;;16.05;65.61;101554.38;4975322;28;20463;-73
2022/10/30 09:11:57;;;;;;;36.05;33.08;;;;;;;16.05;65.84;101547.03;4977077;28;20081;-72
2022/10/30 09:14:22;;;;;;;39.47;35.67;;;;;;;16.05;66.09;101547.03;4974970;28;20030;-74
2022/10/30 09:16:48;;;;;;;37.40;33.72;;;;;;;16.05;66.39;101554.38;4976622;28;20451;-73
2022/10/30 09:19:13;;;;;;;38.25;34.78;;;;;;;16.06;66.49;101553.31;4975088;28;20041;-73
2022/10/30 09:21:38;;;;;;;44.55;36.60;;;;;;;16.06;66.76;101553.31;4976175;28;20035;-72
2022/10/30 09:24:04;;;;;;;38.75;35.05;;;;;;;16.06;66.54;101554.13;4976248;28;20554;-73
2022/10/30 09:26:29;;;;;;;35.72;32.63;;;;;;;16.06;67.17;101559.56;4976005;28;20453;-73
2022/10/30 09:28:55;;;;;;;36.85;33.55;;;;;;;16.06;67.21;101562.31;4976340;28;20487;-72
2022/10/30 09:31:20;;;;;;;45.67;38.50;;;;;;;16.08;67.08;101567.50;4974985;28;20113;-72
2022/10/30 09:33:45;;;;;;;37.67;34.63;;;;;;;16.08;67.32;101576.50;4976036;28;20118;-72
2022/10/30 09:36:11;;;;;;;34.45;31.35;;;;;;;16.08;67.00;101576.50;4976447;28;20435;-72
2022/10/30 09:38:36;;;;;;;35.40;32.17;;;;;;;16.09;67.13;101571.88;4976493;28;20121;-72
2022/10/30 09:41:20;;;;;;;33.58;31.00;;;;;;;16.09;67.29;101580.84;4976221;28;20069;-72
2022/10/30 09:44:00;;;;;;;35.38;32.00;;;;;;;16.09;67.19;101586.31;4975682;28;20113;-71
2022/10/30 09:46:31;;;;;;;36.75;33.42;;;;;;;16.09;67.39;101578.13;4975895;28;20113;-75
2022/10/30 09:49:19;;;;;;;36.63;33.10;;;;;;;16.10;67.64;101566.16;4974659;28;20026;-71
2022/10/30 09:51:47;;;;;;;36.77;32.87;;;;;;;16.11;67.58;101577.88;4974616;28;20048;-73
2022/10/30 09:54:49;;;;;;;35.60;32.88;;;;;;;16.11;67.34;101584.16;4975507;28;20502;-73
2022/10/30 09:57:34;;;;;;;36.17;33.08;;;;;;;16.11;67.99;101581.44;4975625;28;20034;-72
2022/10/30 10:00:11;;;;;;;35.83;32.45;;;;;;;16.12;67.80;101585.78;4976218;28;20049;-73
2022/10/30 10:02:52;;;;;;;36.95;33.85;;;;;;;16.12;67.63;101574.88;4974337;28;20240;-73
2022/10/30 10:05:28;;;;;;;40.67;36.47;;;;;;;16.13;68.01;101570.28;4975280;28;20030;-72
2022/10/30 10:08:02;;;;;;;37.47;34.03;;;;;;;16.14;68.12;101570.00;4975590;28;20037;-72
2022/10/30 10:10:41;;;;;;;36.60;33.55;;;;;;;16.15;67.92;101573.53;4974715;28;20026;-73
2022/10/30 10:13:10;;;;;;;;;;;;;;;16.15;67.56;101573.53;4975862;28;20031;-74
2022/10/30 10:15:46;;;;;;;37.35;33.97;;;;;;;16.15;68.02;101573.53;4975022;28;20018;-73
2022/10/30 10:18:19;;;;;;;37.85;34.30;;;;;;;16.16;67.72;101572.47;4975584;28;20041;-73
2022/10/30 10:20:50;;;;;;;36.53;33.42;;;;;;;16.16;67.85;101561.56;4975322;28;20027;-72
2022/10/30 10:23:28;;;;;;;36.13;33.20;;;;;;;16.18;68.05;101570.31;4975308;28;20026;-72
2022/10/30 10:25:56;;;;;;;34.60;31.60;;;;;;;16.18;68.30;101567.59;4975280;28;20041;-74
2022/10/30 10:28:41;;;;;;;36.17;32.20;;;;;;;16.19;68.03;101569.22;4975189;28;20038;-71
2022/10/30 10:31:32;;;;;;;36.30;33.13;;;;;;;16.21;68.53;101567.88;4975649;28;20031;-72
2022/10/30 10:33:58;;;;;;;34.15;31.42;;;;;;;16.21;67.95;101573.34;4975234;28;20348;-71
2022/10/30 10:37:01;;;;;;;36.38;33.22;;;;;;;16.22;68.78;101564.06;4975323;28;20173;-73
2022/10/30 10:39:37;;;;;;;35.70;32.88;;;;;;;16.23;68.40;101562.19;4937591;28;20038;-72
2022/10/30 10:42:41;;;;;;;34.60;31.42;;;;;;;16.26;69.04;101560.84;4974034;28;20058;-73
2022/10/30 10:45:18;;;;;;;34.42;31.33;;;;;;;16.26;68.95;101561.66;4974730;28;20038;-73
2022/10/30 10:48:16;;;;;;;34.78;32.03;;;;;;;16.28;68.98;101564.94;4975153;28;20050;-74
2022/10/30 10:51:13;;;;;;;34.53;31.27;;;;;;;16.28;68.91;101562.22;4975386;28;20027;-74
2022/10/30 10:53:55;;;;;;;34.80;31.77;;;;;;;16.30;68.90;101540.13;4974545;28;20066;-73
2022/10/30 10:56:30;;;;;;;34.30;31.30;;;;;;;16.30;68.33;101540.94;4973994;28;20145;-72
2022/10/30 10:59:02;;;;;;;36.03;32.67;;;;;;;16.32;68.51;101544.25;4973227;28;20374;-72
2022/10/30 11:01:39;;;;;;;34.25;31.20;;;;;;;16.35;68.69;101534.72;4974857;28;20101;-72
2022/10/30 11:04:28;;;;;;;35.00;31.63;;;;;;;16.36;68.79;101548.09;4974819;28;20045;-74
2022/10/30 11:06:56;;;;;;;35.33;32.05;;;;;;;16.37;68.87;101535.28;4974656;28;20109;-72
2022/10/30 11:09:23;;;;;;;35.47;32.47;;;;;;;16.39;68.80;101541.28;4974192;28;20368;-73
2022/10/30 11:11:51;;;;;;;35.65;32.90;;;;;;;16.40;68.82;101543.78;4974690;28;20452;-73
2022/10/30 11:14:27;;;;;;;36.28;32.70;;;;;;;16.42;69.21;101541.59;4974515;28;20034;-73
2022/10/30 11:17:17;;;;;;;35.65;32.67;;;;;;;16.44;68.85;101544.88;4973539;28;20086;-72
2022/10/30 11:19:42;;;;;;;34.42;31.65;;;;;;;16.47;69.05;101545.44;4974406;28;20027;-72